sensor_id;sensor_type;location;lat;lon;timestamp;temperature;humidity
14769;DHT22;7476;49.404;11.152;2023-01-10T00:01:18;4.30;99.90
14769;DHT22;7476;49.404;11.152;2023-01-10T00:03:45;4.40;99.90
14769;DHT22;7476;49.404;11.152;2023-01-10T00:06:12;4.40;99.90
14769;DHT22;7476;49.404;11.152;2023-01-10T00:08:38;4.40;99.90
14769;DHT22;7476;49.404;11.152;2023-01-10T00:11:05;4.40;99.90
14769;DHT22;7476;49.404;11.152;2023-01-10T00:13:52;4.40;99.90
14769;DHT22;7476;49.404;11.152;2023-01-10T00:16:19;4.40;99.90
14769;DHT22;7476;49.404;11.152;2023-01-10T00:18:47;4.40;99.90
14769;DHT22;7476;49.404;11.152;2023-01-10T00:21:14;4.40;99.90
14769;DHT22;7476;49.404;11.152;2023-01-10T00:23:42;4.50;99.90
14769;DHT22;7476;49.404;11.152;2023-01-10T00:26:09;4.50;99.90
14769;DHT22;7476;49.404;11.152;2023-01-10T00:28:36;4.50;99.90
14769;DHT22;7476;49.404;11.152;2023-01-10T00:31:04;4.50;99.90
14769;DHT22;7476;49.404;11.152;2023-01-10T00:33:33;4.50;99.90
14769;DHT22;7476;49.404;11.152;2023-01-10T00:36:01;4.50;99.90
14769;DHT22;7476;49.404;11.152;2023-01-10T00:38:28;4.50;99.90
14769;DHT22;7476;49.404;11.152;2023-01-10T00:40:55;4.60;99.90
14769;DHT22;7476;49.404;11.152;2023-01-10T00:43:22;4.60;99.90
14769;DHT22;7476;49.404;11.152;2023-01-10T00:46:06;4.60;99.90
14769;DHT22;7476;49.404;11.152;2023-01-10T00:48:34;4.60;99.90
14769;DHT22;7476;49.404;11.152;2023-01-10T00:51:01;4.60;99.90
14769;DHT22;7476;49.404;11.152;2023-01-10T00:53:28;4.60;99.90
14769;DHT22;7476;49.404;11.152;2023-01-10T00:55:55;4.70;99.90
14769;DHT22;7476;49.404;11.152;2023-01-10T00:58:22;4.70;99.90
14769;DHT22;7476;49.404;11.152;2023-01-10T01:00:49;4.70;99.90
14769;DHT22;7476;49.404;11.152;2023-01-10T01:03:17;4.70;99.90
14769;DHT22;7476;49.404;11.152;2023-01-10T01:05:46;4.70;99.90
14769;DHT22;7476;49.404;11.152;2023-01-10T01:08:14;4.70;99.90
14769;DHT22;7476;49.404;11.152;2023-01-10T01:10:41;4.80;99.90
14769;DHT22;7476;49.404;11.152;2023-01-10T01:13:11;4.80;99.90
14769;DHT22;7476;49.404;11.152;2023-01-10T01:15:38;4.80;99.90
14769;DHT22;7476;49.404;11.152;2023-01-10T01:18:05;4.80;99.90
14769;DHT22;7476;49.404;11.152;2023-01-10T01:20:33;4.80;99.90
14769;DHT22;7476;49.404;11.152;2023-01-10T01:23:01;4.80;99.90
14769;DHT22;7476;49.404;11.152;2023-01-10T01:25:27;4.80;99.90
14769;DHT22;7476;49.404;11.152;2023-01-10T01:27:54;4.90;99.90
14769;DHT22;7476;49.404;11.152;2023-01-10T01:30:21;4.90;99.90
14769;DHT22;7476;49.404;11.152;2023-01-10T01:32:47;4.90;99.90
14769;DHT22;7476;49.404;11.152;2023-01-10T01:35:14;4.90;99.90
14769;DHT22;7476;49.404;11.152;2023-01-10T01:37:41;4.90;99.90
14769;DHT22;7476;49.404;11.152;2023-01-10T01:40:12;4.90;99.90
14769;DHT22;7476;49.404;11.152;2023-01-10T01:42:39;4.90;99.90
14769;DHT22;7476;49.404;11.152;2023-01-10T01:45:36;4.90;99.90
14769;DHT22;7476;49.404;11.152;2023-01-10T01:51:02;4.80;99.90
14769;DHT22;7476;49.404;11.152;2023-01-10T01:53:35;4.90;99.90
14769;DHT22;7476;49.404;11.152;2023-01-10T01:56:07;4.80;99.90
14769;DHT22;7476;49.404;11.152;2023-01-10T01:58:40;4.80;99.90
14769;DHT22;7476;49.404;11.152;2023-01-10T02:01:08;4.80;99.90
14769;DHT22;7476;49.404;11.152;2023-01-10T02:03:35;4.80;99.90
14769;DHT22;7476;49.404;11.152;2023-01-10T02:06:03;4.80;99.90
14769;DHT22;7476;49.404;11.152;2023-01-10T02:08:30;4.70;99.90
14769;DHT22;7476;49.404;11.152;2023-01-10T02:11:01;4.70;99.90
14769;DHT22;7476;49.404;11.152;2023-01-10T02:13:33;4.70;99.90
14769;DHT22;7476;49.404;11.152;2023-01-10T02:16:00;4.70;99.90
14769;DHT22;7476;49.404;11.152;2023-01-10T02:18:27;4.60;99.90
14769;DHT22;7476;49.404;11.152;2023-01-10T02:24:45;4.70;99.90
14769;DHT22;7476;49.404;11.152;2023-01-10T02:27:25;4.70;99.90
14769;DHT22;7476;49.404;11.152;2023-01-10T02:32:56;4.80;99.90
14769;DHT22;7476;49.404;11.152;2023-01-10T02:35:36;4.90;99.90
14769;DHT22;7476;49.404;11.152;2023-01-10T02:38:15;4.90;99.90
14769;DHT22;7476;49.404;11.152;2023-01-10T02:40:51;4.90;99.90
14769;DHT22;7476;49.404;11.152;2023-01-10T02:43:24;5.00;99.90
14769;DHT22;7476;49.404;11.152;2023-01-10T02:45:58;5.00;99.90
14769;DHT22;7476;49.404;11.152;2023-01-10T02:48:29;5.00;99.90
14769;DHT22;7476;49.404;11.152;2023-01-10T02:51:01;5.00;99.90
14769;DHT22;7476;49.404;11.152;2023-01-10T02:53:31;5.00;99.90
14769;DHT22;7476;49.404;11.152;2023-01-10T02:56:16;5.00;99.90
14769;DHT22;7476;49.404;11.152;2023-01-10T02:58:57;5.00;99.90
14769;DHT22;7476;49.404;11.152;2023-01-10T03:01:32;5.00;99.90
14769;DHT22;7476;49.404;11.152;2023-01-10T03:04:12;5.10;99.90
14769;DHT22;7476;49.404;11.152;2023-01-10T03:06:44;5.10;99.90
14769;DHT22;7476;49.404;11.152;2023-01-10T03:09:16;5.10;99.90
14769;DHT22;7476;49.404;11.152;2023-01-10T03:11:47;5.10;99.90
14769;DHT22;7476;49.404;11.152;2023-01-10T03:14:16;5.10;99.90
14769;DHT22;7476;49.404;11.152;2023-01-10T03:16:49;5.10;99.90
14769;DHT22;7476;49.404;11.152;2023-01-10T03:19:23;5.10;99.90
14769;DHT22;7476;49.404;11.152;2023-01-10T03:21:53;5.10;99.90
14769;DHT22;7476;49.404;11.152;2023-01-10T03:24:25;5.20;99.90
14769;DHT22;7476;49.404;11.152;2023-01-10T03:26:57;5.20;99.90
14769;DHT22;7476;49.404;11.152;2023-01-10T03:29:28;5.20;99.90
14769;DHT22;7476;49.404;11.152;2023-01-10T03:32:01;5.20;99.90
14769;DHT22;7476;49.404;11.152;2023-01-10T03:34:31;5.20;99.90
14769;DHT22;7476;49.404;11.152;2023-01-10T03:37:03;5.20;99.90
14769;DHT22;7476;49.404;11.152;2023-01-10T03:39:39;5.20;99.90
14769;DHT22;7476;49.404;11.152;2023-01-10T03:42:09;5.20;99.90
14769;DHT22;7476;49.404;11.152;2023-01-10T03:44:42;5.20;99.90
14769;DHT22;7476;49.404;11.152;2023-01-10T03:47:14;5.30;99.90
14769;DHT22;7476;49.404;11.152;2023-01-10T03:49:48;5.30;99.90
14769;DHT22;7476;49.404;11.152;2023-01-10T03:52:16;5.30;99.90
14769;DHT22;7476;49.404;11.152;2023-01-10T03:54:44;5.30;99.90
14769;DHT22;7476;49.404;11.152;2023-01-10T03:57:16;5.40;99.90
14769;DHT22;7476;49.404;11.152;2023-01-10T03:59:44;5.30;99.90
14769;DHT22;7476;49.404;11.152;2023-01-10T04:02:11;5.30;99.90
14769;DHT22;7476;49.404;11.152;2023-01-10T04:04:38;5.30;99.90
14769;DHT22;7476;49.404;11.152;2023-01-10T04:07:06;5.30;99.90
14769;DHT22;7476;49.404;11.152;2023-01-10T04:09:33;5.30;99.90
14769;DHT22;7476;49.404;11.152;2023-01-10T04:11:59;5.30;99.90
14769;DHT22;7476;49.404;11.152;2023-01-10T04:14:26;5.40;99.90
14769;DHT22;7476;49.404;11.152;2023-01-10T04:16:54;5.40;99.90
14769;DHT22;7476;49.404;11.152;2023-01-10T04:19:20;5.40;99.90
14769;DHT22;7476;49.404;11.152;2023-01-10T04:21:47;5.30;99.90
14769;DHT22;7476;49.404;11.152;2023-01-10T04:24:15;5.30;99.90
14769;DHT22;7476;49.404;11.152;2023-01-10T04:26:41;5.30;99.90
14769;DHT22;7476;49.404;11.152;2023-01-10T04:29:09;5.20;99.90
14769;DHT22;7476;49.404;11.152;2023-01-10T04:31:36;5.20;99.90
14769;DHT22;7476;49.404;11.152;2023-01-10T04:34:04;5.30;99.90
14769;DHT22;7476;49.404;11.152;2023-01-10T04:36:31;5.30;99.90
14769;DHT22;7476;49.404;11.152;2023-01-10T04:38:57;5.30;99.90
14769;DHT22;7476;49.404;11.152;2023-01-10T04:41:25;5.30;99.90
14769;DHT22;7476;49.404;11.152;2023-01-10T04:43:52;5.30;99.90
14769;DHT22;7476;49.404;11.152;2023-01-10T04:46:19;5.30;99.90
14769;DHT22;7476;49.404;11.152;2023-01-10T04:48:45;5.30;99.90
14769;DHT22;7476;49.404;11.152;2023-01-10T04:51:12;5.40;99.90
14769;DHT22;7476;49.404;11.152;2023-01-10T04:53:39;5.30;99.90
14769;DHT22;7476;49.404;11.152;2023-01-10T04:56:07;5.40;99.90
14769;DHT22;7476;49.404;11.152;2023-01-10T04:58:37;5.40;99.90
14769;DHT22;7476;49.404;11.152;2023-01-10T05:01:07;5.40;99.90
14769;DHT22;7476;49.404;11.152;2023-01-10T05:03:34;5.40;99.90
14769;DHT22;7476;49.404;11.152;2023-01-10T05:06:02;5.40;99.90
14769;DHT22;7476;49.404;11.152;2023-01-10T05:08:29;5.40;99.90
14769;DHT22;7476;49.404;11.152;2023-01-10T05:10:56;5.40;99.90
14769;DHT22;7476;49.404;11.152;2023-01-10T05:13:23;5.40;99.90
14769;DHT22;7476;49.404;11.152;2023-01-10T05:15:54;5.30;99.90
14769;DHT22;7476;49.404;11.152;2023-01-10T05:18:20;5.40;99.90
14769;DHT22;7476;49.404;11.152;2023-01-10T05:20:47;5.30;99.90
14769;DHT22;7476;49.404;11.152;2023-01-10T05:23:14;5.30;99.90
14769;DHT22;7476;49.404;11.152;2023-01-10T05:25:41;5.40;99.90
14769;DHT22;7476;49.404;11.152;2023-01-10T05:28:07;5.30;99.90
14769;DHT22;7476;49.404;11.152;2023-01-10T05:30:34;5.30;99.90
14769;DHT22;7476;49.404;11.152;2023-01-10T05:33:04;5.30;99.90
14769;DHT22;7476;49.404;11.152;2023-01-10T05:35:31;5.20;99.90
14769;DHT22;7476;49.404;11.152;2023-01-10T05:37:57;5.20;99.90
14769;DHT22;7476;49.404;11.152;2023-01-10T05:40:24;5.20;99.90
14769;DHT22;7476;49.404;11.152;2023-01-10T05:42:50;5.10;99.90
14769;DHT22;7476;49.404;11.152;2023-01-10T05:45:17;5.10;99.90
14769;DHT22;7476;49.404;11.152;2023-01-10T05:47:44;5.10;99.90
14769;DHT22;7476;49.404;11.152;2023-01-10T05:50:12;5.10;99.90
14769;DHT22;7476;49.404;11.152;2023-01-10T05:52:38;5.10;99.90
14769;DHT22;7476;49.404;11.152;2023-01-10T05:55:06;5.10;99.90
14769;DHT22;7476;49.404;11.152;2023-01-10T05:57:32;5.10;99.90
14769;DHT22;7476;49.404;11.152;2023-01-10T05:59:59;5.10;99.90
14769;DHT22;7476;49.404;11.152;2023-01-10T06:02:26;5.10;99.90
14769;DHT22;7476;49.404;11.152;2023-01-10T06:04:52;5.20;99.90
14769;DHT22;7476;49.404;11.152;2023-01-10T06:07:22;5.30;99.90
14769;DHT22;7476;49.404;11.152;2023-01-10T06:09:48;5.30;99.90
14769;DHT22;7476;49.404;11.152;2023-01-10T06:12:16;5.30;99.90
14769;DHT22;7476;49.404;11.152;2023-01-10T06:14:44;5.30;99.90
14769;DHT22;7476;49.404;11.152;2023-01-10T06:17:11;5.30;99.90
14769;DHT22;7476;49.404;11.152;2023-01-10T06:19:37;5.30;99.90
14769;DHT22;7476;49.404;11.152;2023-01-10T06:22:04;5.30;99.90
14769;DHT22;7476;49.404;11.152;2023-01-10T06:24:32;5.30;99.90
14769;DHT22;7476;49.404;11.152;2023-01-10T06:26:59;5.30;99.90
14769;DHT22;7476;49.404;11.152;2023-01-10T06:29:25;5.30;99.90
14769;DHT22;7476;49.404;11.152;2023-01-10T06:31:52;5.30;99.90
14769;DHT22;7476;49.404;11.152;2023-01-10T06:34:19;5.30;99.90
14769;DHT22;7476;49.404;11.152;2023-01-10T06:36:45;5.30;99.90
14769;DHT22;7476;49.404;11.152;2023-01-10T06:39:12;5.30;99.90
14769;DHT22;7476;49.404;11.152;2023-01-10T06:41:40;5.30;99.90
14769;DHT22;7476;49.404;11.152;2023-01-10T06:44:07;5.30;99.90
14769;DHT22;7476;49.404;11.152;2023-01-10T06:46:33;5.30;99.90
14769;DHT22;7476;49.404;11.152;2023-01-10T06:49:00;5.30;99.90
14769;DHT22;7476;49.404;11.152;2023-01-10T06:51:27;5.30;99.90
14769;DHT22;7476;49.404;11.152;2023-01-10T06:53:54;5.40;99.90
14769;DHT22;7476;49.404;11.152;2023-01-10T06:56:20;5.40;99.90
14769;DHT22;7476;49.404;11.152;2023-01-10T06:58:49;5.40;99.90
14769;DHT22;7476;49.404;11.152;2023-01-10T07:01:17;5.40;99.90
14769;DHT22;7476;49.404;11.152;2023-01-10T07:03:44;5.30;99.90
14769;DHT22;7476;49.404;11.152;2023-01-10T07:06:12;5.30;99.90
14769;DHT22;7476;49.404;11.152;2023-01-10T07:08:39;5.30;99.90
14769;DHT22;7476;49.404;11.152;2023-01-10T07:11:07;5.30;99.90
14769;DHT22;7476;49.404;11.152;2023-01-10T07:13:34;5.30;99.90
14769;DHT22;7476;49.404;11.152;2023-01-10T07:16:04;5.30;99.90
14769;DHT22;7476;49.404;11.152;2023-01-10T07:18:33;5.40;99.90
14769;DHT22;7476;49.404;11.152;2023-01-10T07:21:00;5.40;99.90
14769;DHT22;7476;49.404;11.152;2023-01-10T07:23:26;5.40;99.90
14769;DHT22;7476;49.404;11.152;2023-01-10T07:25:56;5.30;99.90
14769;DHT22;7476;49.404;11.152;2023-01-10T07:28:23;5.30;99.90
14769;DHT22;7476;49.404;11.152;2023-01-10T07:30:50;5.30;99.90
14769;DHT22;7476;49.404;11.152;2023-01-10T07:33:18;5.30;99.90
14769;DHT22;7476;49.404;11.152;2023-01-10T07:35:44;5.30;99.90
14769;DHT22;7476;49.404;11.152;2023-01-10T07:38:11;5.30;99.90
14769;DHT22;7476;49.404;11.152;2023-01-10T07:40:38;5.20;99.90
14769;DHT22;7476;49.404;11.152;2023-01-10T07:43:04;5.30;99.90
14769;DHT22;7476;49.404;11.152;2023-01-10T07:45:31;5.30;99.90
14769;DHT22;7476;49.404;11.152;2023-01-10T07:47:58;5.30;99.90
14769;DHT22;7476;49.404;11.152;2023-01-10T07:50:29;5.30;99.90
14769;DHT22;7476;49.404;11.152;2023-01-10T07:52:57;5.40;99.90
14769;DHT22;7476;49.404;11.152;2023-01-10T07:55:24;5.40;99.90
14769;DHT22;7476;49.404;11.152;2023-01-10T07:57:51;5.40;99.90
14769;DHT22;7476;49.404;11.152;2023-01-10T08:00:18;5.40;99.90
14769;DHT22;7476;49.404;11.152;2023-01-10T08:02:45;5.40;99.90
14769;DHT22;7476;49.404;11.152;2023-01-10T08:05:12;5.40;99.90
14769;DHT22;7476;49.404;11.152;2023-01-10T08:07:41;5.40;99.90
14769;DHT22;7476;49.404;11.152;2023-01-10T08:10:08;5.40;99.90
14769;DHT22;7476;49.404;11.152;2023-01-10T08:12:35;5.40;99.90
14769;DHT22;7476;49.404;11.152;2023-01-10T08:15:02;5.40;99.90
14769;DHT22;7476;49.404;11.152;2023-01-10T08:17:31;5.50;99.90
14769;DHT22;7476;49.404;11.152;2023-01-10T08:19:58;5.40;99.90
14769;DHT22;7476;49.404;11.152;2023-01-10T08:22:25;5.50;99.90
14769;DHT22;7476;49.404;11.152;2023-01-10T08:24:53;5.40;99.90
14769;DHT22;7476;49.404;11.152;2023-01-10T08:27:20;5.40;99.90
14769;DHT22;7476;49.404;11.152;2023-01-10T08:29:46;5.40;99.90
14769;DHT22;7476;49.404;11.152;2023-01-10T08:32:13;5.40;99.90
14769;DHT22;7476;49.404;11.152;2023-01-10T08:34:40;5.40;99.90
14769;DHT22;7476;49.404;11.152;2023-01-10T08:37:06;5.50;99.90
14769;DHT22;7476;49.404;11.152;2023-01-10T08:39:33;5.50;99.90
14769;DHT22;7476;49.404;11.152;2023-01-10T08:42:01;5.50;99.90
14769;DHT22;7476;49.404;11.152;2023-01-10T08:44:28;5.50;99.90
14769;DHT22;7476;49.404;11.152;2023-01-10T08:46:55;5.50;99.90
14769;DHT22;7476;49.404;11.152;2023-01-10T08:49:22;5.60;99.90
14769;DHT22;7476;49.404;11.152;2023-01-10T08:51:49;5.60;99.90
14769;DHT22;7476;49.404;11.152;2023-01-10T08:54:15;5.60;99.90
14769;DHT22;7476;49.404;11.152;2023-01-10T08:56:42;5.60;99.90
14769;DHT22;7476;49.404;11.152;2023-01-10T08:59:10;5.60;99.90
14769;DHT22;7476;49.404;11.152;2023-01-10T09:01:37;5.60;99.90
14769;DHT22;7476;49.404;11.152;2023-01-10T09:04:03;5.70;99.90
14769;DHT22;7476;49.404;11.152;2023-01-10T09:06:30;5.60;99.90
14769;DHT22;7476;49.404;11.152;2023-01-10T09:08:57;5.70;99.90
14769;DHT22;7476;49.404;11.152;2023-01-10T09:11:23;5.70;99.90
14769;DHT22;7476;49.404;11.152;2023-01-10T09:13:50;5.70;99.90
14769;DHT22;7476;49.404;11.152;2023-01-10T09:16:18;5.80;99.90
14769;DHT22;7476;49.404;11.152;2023-01-10T09:18:45;5.80;99.90
14769;DHT22;7476;49.404;11.152;2023-01-10T09:21:12;5.80;99.90
14769;DHT22;7476;49.404;11.152;2023-01-10T09:23:38;5.80;99.90
14769;DHT22;7476;49.404;11.152;2023-01-10T09:26:06;5.90;99.90
14769;DHT22;7476;49.404;11.152;2023-01-10T09:28:32;5.90;99.90
14769;DHT22;7476;49.404;11.152;2023-01-10T09:30:59;5.80;99.90
14769;DHT22;7476;49.404;11.152;2023-01-10T09:33:30;5.80;99.90
14769;DHT22;7476;49.404;11.152;2023-01-10T09:35:57;5.80;99.90
14769;DHT22;7476;49.404;11.152;2023-01-10T09:38:24;5.80;99.90
14769;DHT22;7476;49.404;11.152;2023-01-10T09:41:22;5.80;99.90
14769;DHT22;7476;49.404;11.152;2023-01-10T09:43:58;5.90;99.90
14769;DHT22;7476;49.404;11.152;2023-01-10T09:46:37;5.90;99.90
14769;DHT22;7476;49.404;11.152;2023-01-10T09:49:14;5.90;99.90
14769;DHT22;7476;49.404;11.152;2023-01-10T09:51:45;5.90;99.90
14769;DHT22;7476;49.404;11.152;2023-01-10T09:54:16;5.90;99.90
14769;DHT22;7476;49.404;11.152;2023-01-10T09:56:44;6.00;99.90
14769;DHT22;7476;49.404;11.152;2023-01-10T09:59:14;6.10;99.90
14769;DHT22;7476;49.404;11.152;2023-01-10T10:01:43;6.10;99.90
14769;DHT22;7476;49.404;11.152;2023-01-10T10:04:22;6.10;99.90
14769;DHT22;7476;49.404;11.152;2023-01-10T10:06:51;6.10;99.90
14769;DHT22;7476;49.404;11.152;2023-01-10T10:09:22;6.20;99.90
14769;DHT22;7476;49.404;11.152;2023-01-10T10:11:59;6.30;99.90
14769;DHT22;7476;49.404;11.152;2023-01-10T10:14:37;6.40;99.90
14769;DHT22;7476;49.404;11.152;2023-01-10T10:17:18;6.40;99.90
14769;DHT22;7476;49.404;11.152;2023-01-10T10:20:01;6.50;99.90
14769;DHT22;7476;49.404;11.152;2023-01-10T10:22:36;6.60;99.90
14769;DHT22;7476;49.404;11.152;2023-01-10T10:25:14;6.60;99.90
14769;DHT22;7476;49.404;11.152;2023-01-10T10:28:01;6.50;99.90
14769;DHT22;7476;49.404;11.152;2023-01-10T10:30:36;6.40;99.90
14769;DHT22;7476;49.404;11.152;2023-01-10T10:33:38;6.30;99.90
14769;DHT22;7476;49.404;11.152;2023-01-10T10:36:13;6.20;99.90
14769;DHT22;7476;49.404;11.152;2023-01-10T10:38:43;6.20;99.90
14769;DHT22;7476;49.404;11.152;2023-01-10T10:41:16;6.10;99.90
14769;DHT22;7476;49.404;11.152;2023-01-10T10:43:45;6.00;99.90
14769;DHT22;7476;49.404;11.152;2023-01-10T10:46:15;6.00;99.90
14769;DHT22;7476;49.404;11.152;2023-01-10T10:48:47;6.10;99.90
14769;DHT22;7476;49.404;11.152;2023-01-10T10:51:22;6.10;99.90
14769;DHT22;7476;49.404;11.152;2023-01-10T10:53:50;6.20;99.90
14769;DHT22;7476;49.404;11.152;2023-01-10T10:56:20;6.20;99.90
14769;DHT22;7476;49.404;11.152;2023-01-10T10:58:50;6.10;99.90
14769;DHT22;7476;49.404;11.152;2023-01-10T11:01:20;6.10;99.90
14769;DHT22;7476;49.404;11.152;2023-01-10T11:03:50;6.10;99.90
14769;DHT22;7476;49.404;11.152;2023-01-10T11:06:20;6.20;99.90
14769;DHT22;7476;49.404;11.152;2023-01-10T11:08:51;6.30;99.90
14769;DHT22;7476;49.404;11.152;2023-01-10T11:11:23;6.40;99.90
14769;DHT22;7476;49.404;11.152;2023-01-10T11:13:53;6.40;99.90
14769;DHT22;7476;49.404;11.152;2023-01-10T11:16:31;6.50;99.90
14769;DHT22;7476;49.404;11.152;2023-01-10T11:19:16;6.50;99.90
14769;DHT22;7476;49.404;11.152;2023-01-10T11:21:51;6.50;99.90
14769;DHT22;7476;49.404;11.152;2023-01-10T11:24:30;6.40;99.90
14769;DHT22;7476;49.404;11.152;2023-01-10T11:27:01;6.50;99.90
14769;DHT22;7476;49.404;11.152;2023-01-10T11:29:36;6.50;99.90
14769;DHT22;7476;49.404;11.152;2023-01-10T11:32:08;6.50;99.90
14769;DHT22;7476;49.404;11.152;2023-01-10T11:34:39;6.60;99.90
14769;DHT22;7476;49.404;11.152;2023-01-10T11:37:18;6.50;99.90
14769;DHT22;7476;49.404;11.152;2023-01-10T11:39:45;6.50;99.90
14769;DHT22;7476;49.404;11.152;2023-01-10T11:42:27;6.60;99.90
14769;DHT22;7476;49.404;11.152;2023-01-10T11:44:56;6.50;99.90
14769;DHT22;7476;49.404;11.152;2023-01-10T11:47:42;6.60;99.90
14769;DHT22;7476;49.404;11.152;2023-01-10T11:50:09;6.50;99.90
14769;DHT22;7476;49.404;11.152;2023-01-10T11:52:42;6.50;99.90
14769;DHT22;7476;49.404;11.152;2023-01-10T11:55:10;6.60;99.90
14769;DHT22;7476;49.404;11.152;2023-01-10T11:57:43;6.50;99.90
14769;DHT22;7476;49.404;11.152;2023-01-10T12:00:10;6.60;99.90
14769;DHT22;7476;49.404;11.152;2023-01-10T12:02:40;6.70;99.90
14769;DHT22;7476;49.404;11.152;2023-01-10T12:05:10;6.70;99.90
14769;DHT22;7476;49.404;11.152;2023-01-10T12:07:55;6.70;99.90
14769;DHT22;7476;49.404;11.152;2023-01-10T12:10:24;6.70;99.90
14769;DHT22;7476;49.404;11.152;2023-01-10T12:12:55;6.70;99.90
14769;DHT22;7476;49.404;11.152;2023-01-10T12:15:25;6.70;99.90
14769;DHT22;7476;49.404;11.152;2023-01-10T12:17:53;6.60;99.90
14769;DHT22;7476;49.404;11.152;2023-01-10T12:20:21;6.60;99.90
14769;DHT22;7476;49.404;11.152;2023-01-10T12:22:51;6.50;99.90
14769;DHT22;7476;49.404;11.152;2023-01-10T12:25:23;6.40;99.90
14769;DHT22;7476;49.404;11.152;2023-01-10T12:27:53;6.40;99.90
14769;DHT22;7476;49.404;11.152;2023-01-10T12:30:28;6.20;99.90
14769;DHT22;7476;49.404;11.152;2023-01-10T12:32:59;6.00;99.90
14769;DHT22;7476;49.404;11.152;2023-01-10T12:35:35;5.90;99.90
14769;DHT22;7476;49.404;11.152;2023-01-10T12:38:10;5.90;99.90
14769;DHT22;7476;49.404;11.152;2023-01-10T12:40:47;6.10;99.90
14769;DHT22;7476;49.404;11.152;2023-01-10T12:43:17;6.10;99.90
14769;DHT22;7476;49.404;11.152;2023-01-10T12:46:09;6.20;99.90
14769;DHT22;7476;49.404;11.152;2023-01-10T12:48:42;6.20;99.90
14769;DHT22;7476;49.404;11.152;2023-01-10T12:51:14;6.20;99.90
14769;DHT22;7476;49.404;11.152;2023-01-10T12:53:44;6.20;99.90
14769;DHT22;7476;49.404;11.152;2023-01-10T12:56:15;6.20;99.90
14769;DHT22;7476;49.404;11.152;2023-01-10T12:58:45;6.20;99.90
14769;DHT22;7476;49.404;11.152;2023-01-10T13:01:15;6.20;99.90
14769;DHT22;7476;49.404;11.152;2023-01-10T13:03:44;6.20;99.90
14769;DHT22;7476;49.404;11.152;2023-01-10T13:06:19;6.30;99.90
14769;DHT22;7476;49.404;11.152;2023-01-10T13:08:47;6.20;99.90
14769;DHT22;7476;49.404;11.152;2023-01-10T13:11:18;6.20;99.90
14769;DHT22;7476;49.404;11.152;2023-01-10T13:13:51;6.20;99.90
14769;DHT22;7476;49.404;11.152;2023-01-10T13:16:27;6.30;99.90
14769;DHT22;7476;49.404;11.152;2023-01-10T13:19:01;6.30;99.90
14769;DHT22;7476;49.404;11.152;2023-01-10T13:21:29;6.40;99.90
14769;DHT22;7476;49.404;11.152;2023-01-10T13:23:58;6.40;99.90
14769;DHT22;7476;49.404;11.152;2023-01-10T13:26:45;6.40;99.90
14769;DHT22;7476;49.404;11.152;2023-01-10T13:29:17;6.50;99.90
14769;DHT22;7476;49.404;11.152;2023-01-10T13:31:44;6.50;99.90
14769;DHT22;7476;49.404;11.152;2023-01-10T13:34:14;6.50;99.90
14769;DHT22;7476;49.404;11.152;2023-01-10T13:36:45;6.40;99.90
14769;DHT22;7476;49.404;11.152;2023-01-10T13:39:22;6.40;99.90
14769;DHT22;7476;49.404;11.152;2023-01-10T13:42:23;6.50;99.90
14769;DHT22;7476;49.404;11.152;2023-01-10T13:45:22;6.50;99.90
14769;DHT22;7476;49.404;11.152;2023-01-10T13:48:24;6.50;99.90
14769;DHT22;7476;49.404;11.152;2023-01-10T13:50:56;6.50;99.90
14769;DHT22;7476;49.404;11.152;2023-01-10T13:53:42;6.50;99.90
14769;DHT22;7476;49.404;11.152;2023-01-10T13:56:28;6.40;99.90
14769;DHT22;7476;49.404;11.152;2023-01-10T13:58:56;6.40;99.90
14769;DHT22;7476;49.404;11.152;2023-01-10T14:01:40;6.30;99.90
14769;DHT22;7476;49.404;11.152;2023-01-10T14:04:26;6.30;99.90
14769;DHT22;7476;49.404;11.152;2023-01-10T14:06:57;6.20;99.90
14769;DHT22;7476;49.404;11.152;2023-01-10T14:09:40;6.20;99.90
14769;DHT22;7476;49.404;11.152;2023-01-10T14:12:22;6.10;99.90
14769;DHT22;7476;49.404;11.152;2023-01-10T14:14:54;6.10;99.90
14769;DHT22;7476;49.404;11.152;2023-01-10T14:17:23;6.20;99.90
14769;DHT22;7476;49.404;11.152;2023-01-10T14:20:05;6.20;99.90
14769;DHT22;7476;49.404;11.152;2023-01-10T14:22:34;6.30;99.90
14769;DHT22;7476;49.404;11.152;2023-01-10T14:25:05;6.30;99.90
14769;DHT22;7476;49.404;11.152;2023-01-10T14:27:42;6.20;99.90
14769;DHT22;7476;49.404;11.152;2023-01-10T14:30:20;6.10;99.90
14769;DHT22;7476;49.404;11.152;2023-01-10T14:32:49;6.00;99.90
14769;DHT22;7476;49.404;11.152;2023-01-10T14:35:19;5.90;99.90
14769;DHT22;7476;49.404;11.152;2023-01-10T14:37:50;5.90;99.90
14769;DHT22;7476;49.404;11.152;2023-01-10T14:40:24;5.80;99.90
14769;DHT22;7476;49.404;11.152;2023-01-10T14:42:52;5.80;99.90
14769;DHT22;7476;49.404;11.152;2023-01-10T14:45:30;5.80;99.90
14769;DHT22;7476;49.404;11.152;2023-01-10T14:48:18;5.80;99.90
14769;DHT22;7476;49.404;11.152;2023-01-10T14:50:47;5.80;99.90
14769;DHT22;7476;49.404;11.152;2023-01-10T14:53:24;5.80;99.90
14769;DHT22;7476;49.404;11.152;2023-01-10T14:55:51;5.70;99.90
14769;DHT22;7476;49.404;11.152;2023-01-10T14:58:17;5.70;99.90
14769;DHT22;7476;49.404;11.152;2023-01-10T15:00:45;5.60;99.90
14769;DHT22;7476;49.404;11.152;2023-01-10T15:03:17;5.60;99.90
14769;DHT22;7476;49.404;11.152;2023-01-10T15:05:45;5.50;99.90
14769;DHT22;7476;49.404;11.152;2023-01-10T15:08:19;5.50;99.90
14769;DHT22;7476;49.404;11.152;2023-01-10T15:10:46;5.50;99.90
14769;DHT22;7476;49.404;11.152;2023-01-10T15:13:17;5.50;99.90
14769;DHT22;7476;49.404;11.152;2023-01-10T15:15:47;5.40;99.90
14769;DHT22;7476;49.404;11.152;2023-01-10T15:18:27;5.40;99.90
14769;DHT22;7476;49.404;11.152;2023-01-10T15:20:55;5.40;99.90
14769;DHT22;7476;49.404;11.152;2023-01-10T15:23:22;5.40;99.90
14769;DHT22;7476;49.404;11.152;2023-01-10T15:25:55;5.40;99.90
14769;DHT22;7476;49.404;11.152;2023-01-10T15:28:23;5.40;99.90
14769;DHT22;7476;49.404;11.152;2023-01-10T15:30:53;5.40;99.90
14769;DHT22;7476;49.404;11.152;2023-01-10T15:53:54;5.00;99.90
14769;DHT22;7476;49.404;11.152;2023-01-10T15:56:25;5.00;99.90
14769;DHT22;7476;49.404;11.152;2023-01-10T15:58:53;5.00;99.90
14769;DHT22;7476;49.404;11.152;2023-01-10T16:01:20;5.00;99.90
14769;DHT22;7476;49.404;11.152;2023-01-10T16:03:48;5.00;99.90
14769;DHT22;7476;49.404;11.152;2023-01-10T16:06:21;4.90;99.90
14769;DHT22;7476;49.404;11.152;2023-01-10T16:08:50;5.00;99.90
14769;DHT22;7476;49.404;11.152;2023-01-10T16:11:22;5.00;99.90
14769;DHT22;7476;49.404;11.152;2023-01-10T16:14:03;5.00;99.90
14769;DHT22;7476;49.404;11.152;2023-01-10T16:16:30;4.90;99.90
14769;DHT22;7476;49.404;11.152;2023-01-10T16:18:57;4.90;99.90
14769;DHT22;7476;49.404;11.152;2023-01-10T16:21:24;4.90;99.90
14769;DHT22;7476;49.404;11.152;2023-01-10T16:23:53;4.90;99.90
14769;DHT22;7476;49.404;11.152;2023-01-10T16:26:21;4.90;99.90
14769;DHT22;7476;49.404;11.152;2023-01-10T16:28:47;4.90;99.90
14769;DHT22;7476;49.404;11.152;2023-01-10T16:31:14;4.80;99.90
14769;DHT22;7476;49.404;11.152;2023-01-10T16:33:41;4.80;99.90
14769;DHT22;7476;49.404;11.152;2023-01-10T16:36:13;4.70;99.90